createdAt,value
2018-12-27T00:01:39.332Z,99.90
2018-12-27T00:04:07.904Z,99.90
2018-12-27T00:06:36.363Z,99.90
2018-12-27T00:09:07.013Z,99.90
2018-12-27T00:11:35.487Z,99.90
2018-12-27T00:14:04.021Z,99.90
2018-12-27T00:16:32.503Z,99.90
2018-12-27T00:19:01.022Z,99.90
2018-12-27T00:21:29.534Z,99.90
2018-12-27T00:23:58.041Z,99.90
2018-12-27T00:26:26.532Z,99.90
2018-12-27T00:28:55.063Z,99.90
2018-12-27T00:31:23.691Z,99.90
2018-12-27T00:33:52.343Z,99.90
2018-12-27T00:36:21.265Z,99.90
2018-12-27T00:38:51.520Z,99.90
2018-12-27T00:41:20.294Z,99.90
2018-12-27T00:43:48.971Z,99.90
2018-12-27T00:46:17.577Z,99.90
2018-12-27T00:48:46.252Z,99.90
2018-12-27T00:51:14.857Z,99.90
2018-12-27T00:53:43.544Z,99.90
2018-12-27T00:56:12.172Z,99.90
2018-12-27T00:58:40.834Z,99.90
2018-12-27T01:01:09.565Z,99.90
2018-12-27T01:03:38.186Z,99.90
2018-12-27T01:06:06.800Z,99.90
2018-12-27T01:08:35.736Z,99.90
2018-12-27T01:11:04.407Z,99.90
2018-12-27T01:13:33.044Z,99.90
2018-12-27T01:16:02.386Z,99.90
2018-12-27T01:18:31.064Z,99.90
2018-12-27T01:20:59.695Z,99.90
2018-12-27T01:23:28.365Z,99.90
2018-12-27T01:25:56.976Z,99.90
2018-12-27T01:28:25.631Z,99.90
2018-12-27T01:30:54.275Z,99.90
2018-12-27T01:33:22.905Z,99.90
2018-12-27T01:35:51.710Z,99.90
2018-12-27T01:38:20.330Z,99.90
2018-12-27T01:40:48.955Z,99.90
2018-12-27T01:43:17.599Z,99.90
2018-12-27T01:45:46.250Z,99.90
2018-12-27T01:48:14.881Z,99.90
2018-12-27T01:50:43.572Z,99.90
2018-12-27T01:53:12.224Z,99.90
2018-12-27T01:55:41.467Z,99.90
2018-12-27T01:58:10.108Z,99.90
2018-12-27T02:00:39.103Z,99.90
2018-12-27T02:03:07.763Z,99.90
2018-12-27T02:05:36.588Z,99.90
2018-12-27T02:08:05.206Z,99.90
2018-12-27T02:10:33.832Z,99.90
2018-12-27T02:13:02.478Z,99.90
2018-12-27T02:15:31.126Z,99.90
2018-12-27T02:17:59.772Z,99.90
2018-12-27T02:20:28.419Z,99.90
2018-12-27T02:22:57.049Z,99.90
2018-12-27T02:25:25.697Z,99.90
2018-12-27T02:27:54.331Z,99.90
2018-12-27T02:30:22.950Z,99.90
2018-12-27T02:32:51.680Z,99.90
2018-12-27T02:35:20.288Z,99.90
2018-12-27T02:37:48.965Z,99.90
2018-12-27T02:40:17.652Z,99.90
2018-12-27T02:42:46.280Z,99.90
2018-12-27T02:45:14.920Z,99.90
2018-12-27T02:47:43.533Z,99.90
2018-12-27T02:50:12.158Z,99.90
2018-12-27T02:52:40.869Z,99.90
2018-12-27T02:55:09.503Z,99.90
2018-12-27T02:57:38.136Z,99.90
2018-12-27T03:00:06.752Z,99.90
2018-12-27T03:02:35.754Z,99.90
2018-12-27T03:05:04.370Z,99.90
2018-12-27T03:07:32.981Z,99.90
2018-12-27T03:10:01.795Z,99.90
2018-12-27T03:12:30.478Z,99.90
2018-12-27T03:14:59.160Z,99.90
2018-12-27T03:17:27.824Z,99.90
2018-12-27T03:19:56.469Z,99.90
2018-12-27T03:22:25.103Z,99.90
2018-12-27T03:24:53.780Z,99.90
2018-12-27T03:27:22.482Z,99.90
2018-12-27T03:29:51.167Z,99.90
2018-12-27T03:32:19.832Z,99.90
2018-12-27T03:34:48.565Z,99.90
2018-12-27T03:37:17.301Z,99.90
2018-12-27T03:39:46.047Z,99.90
2018-12-27T03:42:15.010Z,99.90
2018-12-27T03:44:43.641Z,99.90
2018-12-27T03:47:12.253Z,99.90
2018-12-27T03:49:42.090Z,99.90
2018-12-27T03:52:10.801Z,99.90
2018-12-27T03:54:39.491Z,99.90
2018-12-27T03:57:08.138Z,99.90
2018-12-27T03:59:36.748Z,99.90
2018-12-27T04:02:05.428Z,99.90
2018-12-27T04:04:34.148Z,99.90
2018-12-27T04:07:02.765Z,99.90
2018-12-27T04:09:31.409Z,99.90
2018-12-27T04:12:00.201Z,99.90
2018-12-27T04:14:28.914Z,99.90
2018-12-27T04:16:57.446Z,99.90
2018-12-27T04:19:26.265Z,99.90
2018-12-27T04:21:54.814Z,99.90
2018-12-27T04:24:23.777Z,99.90
2018-12-27T04:26:52.284Z,99.90
2018-12-27T04:29:20.752Z,99.90
2018-12-27T04:31:49.784Z,99.90
2018-12-27T04:34:18.591Z,99.90
2018-12-27T04:36:47.402Z,99.90
2018-12-27T04:39:16.186Z,99.90
2018-12-27T04:41:44.732Z,99.90
2018-12-27T04:44:13.471Z,99.90
2018-12-27T04:46:42.392Z,99.90
2018-12-27T04:49:10.853Z,99.90
2018-12-27T04:51:39.315Z,99.90
2018-12-27T04:54:08.143Z,99.90
2018-12-27T04:56:36.608Z,99.90
2018-12-27T04:59:05.075Z,99.90
2018-12-27T05:01:33.795Z,99.90
2018-12-27T05:04:02.249Z,99.90
2018-12-27T05:06:30.725Z,99.90
2018-12-27T05:08:59.554Z,99.90
2018-12-27T05:11:28.023Z,99.90
2018-12-27T05:13:58.193Z,99.90
2018-12-27T05:16:26.805Z,99.90
2018-12-27T05:18:55.280Z,99.90
2018-12-27T05:21:23.752Z,99.90
2018-12-27T05:23:52.274Z,99.90
2018-12-27T05:26:20.730Z,99.90
2018-12-27T05:28:49.272Z,99.90
2018-12-27T05:31:17.851Z,99.90
2018-12-27T05:33:46.379Z,99.90
2018-12-27T05:36:15.170Z,99.90
2018-12-27T05:38:43.617Z,99.90
2018-12-27T05:41:12.079Z,99.90
2018-12-27T05:43:40.575Z,99.90
2018-12-27T05:46:09.081Z,99.90
2018-12-27T05:48:37.605Z,99.90
2018-12-27T05:51:06.075Z,99.90
2018-12-27T05:53:34.554Z,99.90
2018-12-27T05:56:03.043Z,99.90
2018-12-27T05:58:31.504Z,99.90
2018-12-27T06:00:59.972Z,99.90
2018-12-27T06:03:28.451Z,99.90
2018-12-27T06:05:56.914Z,99.90
2018-12-27T06:08:25.670Z,99.90
2018-12-27T06:10:54.139Z,99.90
2018-12-27T06:13:22.600Z,99.90
2018-12-27T06:15:51.108Z,99.90
2018-12-27T06:18:19.666Z,99.90
2018-12-27T06:20:48.138Z,99.90
2018-12-27T06:23:16.636Z,99.90
2018-12-27T06:25:45.219Z,99.90
2018-12-27T06:28:13.688Z,99.90
2018-12-27T06:30:42.247Z,99.90
2018-12-27T06:33:11.175Z,99.90
2018-12-27T06:35:39.687Z,99.90
2018-12-27T06:40:35.579Z,99.90
2018-12-27T06:43:04.057Z,99.90
2018-12-27T06:45:32.630Z,99.90
2018-12-27T06:48:01.128Z,99.90
2018-12-27T06:50:29.596Z,99.90
2018-12-27T06:52:58.059Z,99.90
2018-12-27T06:55:26.557Z,99.90
2018-12-27T06:57:55.024Z,99.90
2018-12-27T07:00:23.506Z,99.90
2018-12-27T07:02:51.957Z,99.90
2018-12-27T07:05:20.449Z,99.90
2018-12-27T07:07:48.923Z,99.90
2018-12-27T07:10:17.425Z,99.90
2018-12-27T07:12:45.883Z,99.90
2018-12-27T07:15:14.365Z,99.90
2018-12-27T07:17:44.011Z,99.90
2018-12-27T07:20:12.465Z,99.90
2018-12-27T07:22:40.959Z,99.90
2018-12-27T07:25:09.473Z,99.90
2018-12-27T07:27:38.024Z,99.90
2018-12-27T07:30:07.436Z,99.90
2018-12-27T07:32:36.200Z,99.90
2018-12-27T07:35:05.001Z,99.90
2018-12-27T07:37:33.532Z,99.90
2018-12-27T07:40:02.026Z,99.90
2018-12-27T07:42:30.488Z,99.90
2018-12-27T07:44:58.956Z,99.90
2018-12-27T07:47:27.455Z,99.90
2018-12-27T07:49:56.267Z,99.90
2018-12-27T07:52:24.805Z,99.90
2018-12-27T07:54:53.313Z,99.90
2018-12-27T07:57:21.805Z,99.90
2018-12-27T07:59:50.286Z,99.90
2018-12-27T08:02:18.815Z,99.90
2018-12-27T08:04:47.349Z,99.90
2018-12-27T08:07:15.843Z,99.90
2018-12-27T08:09:44.349Z,99.90
2018-12-27T08:12:12.837Z,99.90
2018-12-27T08:14:41.303Z,99.90
2018-12-27T08:17:09.763Z,99.90
2018-12-27T08:19:38.264Z,99.90
2018-12-27T08:22:06.773Z,99.90
2018-12-27T08:24:35.249Z,99.90
2018-12-27T08:27:03.826Z,99.90
2018-12-27T08:29:32.314Z,99.90
2018-12-27T08:32:00.819Z,99.90
2018-12-27T08:34:29.324Z,99.90
2018-12-27T08:36:57.797Z,99.90
2018-12-27T08:39:26.291Z,99.90
2018-12-27T08:41:54.865Z,99.90
2018-12-27T08:44:23.433Z,99.90
2018-12-27T08:46:51.930Z,99.90
2018-12-27T08:49:20.449Z,99.90
2018-12-27T08:51:49.025Z,99.90
2018-12-27T08:54:17.554Z,99.90
2018-12-27T08:56:46.057Z,99.90
2018-12-27T08:59:14.538Z,99.90
2018-12-27T09:01:43.101Z,99.90
2018-12-27T09:04:11.549Z,99.90
2018-12-27T09:06:40.215Z,99.90
2018-12-27T09:09:08.689Z,99.90
2018-12-27T09:11:37.245Z,99.90
2018-12-27T09:14:05.779Z,99.90
2018-12-27T09:16:34.231Z,99.90
2018-12-27T09:19:02.720Z,99.90
2018-12-27T09:21:31.218Z,99.90
2018-12-27T09:23:59.676Z,99.90
2018-12-27T09:26:28.230Z,99.90
2018-12-27T09:28:56.720Z,99.90
2018-12-27T09:31:25.212Z,99.90
2018-12-27T09:33:53.766Z,99.90
2018-12-27T09:36:22.293Z,99.90
2018-12-27T09:38:50.940Z,99.90
2018-12-27T09:41:19.413Z,99.90
2018-12-27T09:43:47.888Z,99.90
2018-12-27T09:46:16.382Z,99.90
2018-12-27T09:48:45.289Z,99.90
2018-12-27T09:51:13.767Z,99.90
2018-12-27T09:53:42.235Z,99.90
2018-12-27T09:56:10.757Z,99.90
2018-12-27T09:58:39.241Z,99.90
2018-12-27T10:01:07.714Z,99.90
2018-12-27T10:03:36.489Z,99.90
2018-12-27T10:06:05.013Z,99.90
2018-12-27T10:08:33.494Z,99.90
2018-12-27T10:11:02.046Z,99.90
2018-12-27T10:13:30.507Z,99.90
2018-12-27T10:15:58.970Z,99.90
2018-12-27T10:18:27.594Z,99.90
2018-12-27T10:20:56.089Z,99.90
2018-12-27T10:23:24.547Z,99.90
2018-12-27T10:25:53.013Z,99.90
2018-12-27T10:28:21.564Z,99.90
2018-12-27T10:30:50.075Z,99.90
2018-12-27T10:33:18.598Z,99.90
2018-12-27T10:35:47.305Z,99.90
2018-12-27T10:38:15.751Z,99.90
2018-12-27T10:40:44.244Z,99.90
2018-12-27T10:43:12.726Z,99.90
2018-12-27T10:45:41.282Z,99.90
2018-12-27T10:48:09.734Z,99.90
2018-12-27T10:50:38.240Z,99.90
2018-12-27T10:53:06.763Z,99.90
2018-12-27T10:55:35.299Z,99.90
2018-12-27T10:58:03.847Z,99.60
2018-12-27T11:00:32.396Z,96.40
2018-12-27T11:03:00.910Z,95.60
2018-12-27T11:05:29.375Z,94.00
2018-12-27T11:07:57.877Z,94.50
2018-12-27T11:10:26.347Z,93.10
2018-12-27T11:12:54.840Z,91.80
2018-12-27T11:15:23.405Z,92.10
2018-12-27T11:17:51.938Z,92.00
2018-12-27T11:20:20.437Z,90.20
2018-12-27T11:22:48.969Z,88.80
2018-12-27T11:25:17.598Z,85.80
2018-12-27T11:27:46.547Z,82.20
2018-12-27T11:30:15.062Z,82.40
2018-12-27T11:32:43.599Z,83.20
2018-12-27T11:35:12.396Z,79.90
2018-12-27T11:37:41.053Z,78.10
2018-12-27T11:40:09.520Z,76.50
2018-12-27T11:42:38.034Z,75.70
2018-12-27T11:45:07.321Z,74.00
2018-12-27T11:47:35.791Z,68.90
2018-12-27T11:50:04.931Z,68.10
2018-12-27T11:52:33.511Z,68.90
2018-12-27T11:55:02.056Z,69.70
2018-12-27T11:57:30.567Z,70.10
2018-12-27T11:59:59.025Z,70.10
2018-12-27T12:02:31.136Z,71.70
2018-12-27T12:04:57.909Z,71.20
2018-12-27T12:07:26.472Z,68.80
2018-12-27T12:09:55.015Z,71.00
2018-12-27T12:12:23.585Z,69.10
2018-12-27T12:14:52.055Z,70.40
2018-12-27T12:17:20.515Z,72.10
2018-12-27T12:19:49.095Z,73.90
2018-12-27T12:22:17.626Z,75.80
2018-12-27T12:24:46.239Z,77.00
2018-12-27T12:27:14.768Z,77.90
2018-12-27T12:29:43.332Z,79.50
2018-12-27T12:32:12.015Z,80.40
2018-12-27T12:34:40.843Z,82.10
2018-12-27T12:37:13.978Z,83.30
2018-12-27T12:39:39.792Z,85.90
2018-12-27T12:42:08.240Z,87.10
2018-12-27T12:44:36.701Z,88.50
2018-12-27T12:47:05.618Z,89.80
2018-12-27T12:49:34.144Z,90.20
2018-12-27T12:52:02.626Z,90.70
2018-12-27T12:54:31.172Z,91.10
2018-12-27T12:56:59.634Z,94.30
2018-12-27T12:59:28.082Z,92.60
2018-12-27T13:01:56.565Z,92.80
2018-12-27T13:04:25.038Z,93.20
2018-12-27T13:06:53.609Z,93.70
2018-12-27T13:09:22.059Z,94.10
2018-12-27T13:11:50.576Z,94.40
2018-12-27T13:14:19.083Z,94.70
2018-12-27T13:16:47.554Z,95.50
2018-12-27T13:19:16.045Z,95.60
2018-12-27T13:21:44.499Z,95.70
2018-12-27T13:24:12.971Z,96.00
2018-12-27T13:26:41.543Z,96.60
2018-12-27T13:29:09.998Z,96.90
2018-12-27T13:31:38.457Z,95.90
2018-12-27T13:34:06.947Z,95.40
2018-12-27T13:36:35.462Z,95.10
2018-12-27T13:39:05.666Z,95.50
2018-12-27T13:41:34.243Z,95.50
2018-12-27T13:44:02.722Z,95.50
2018-12-27T13:46:31.276Z,96.20
2018-12-27T13:48:59.782Z,94.90
2018-12-27T13:51:28.304Z,95.00
2018-12-27T13:53:56.753Z,95.20
2018-12-27T13:56:25.258Z,95.00
2018-12-27T13:58:53.790Z,95.10
2018-12-27T14:01:22.247Z,99.90
2018-12-27T14:03:50.756Z,99.90
2018-12-27T14:06:19.310Z,99.90
2018-12-27T14:08:47.860Z,99.40
2018-12-27T14:11:16.376Z,98.90
2018-12-27T14:13:45.295Z,98.80
2018-12-27T14:16:13.914Z,99.00
2018-12-27T14:18:42.402Z,98.90
2018-12-27T14:21:11.720Z,99.10
2018-12-27T14:23:40.210Z,98.80
2018-12-27T14:26:08.671Z,98.80
2018-12-27T14:28:40.033Z,98.80
2018-12-27T14:31:08.682Z,99.00
2018-12-27T14:33:37.158Z,98.90
2018-12-27T14:36:05.615Z,98.90
2018-12-27T14:38:34.095Z,99.30
2018-12-27T14:41:02.601Z,99.40
2018-12-27T14:43:31.801Z,99.80
2018-12-27T14:46:00.316Z,99.90
2018-12-27T14:48:28.774Z,99.90
2018-12-27T14:50:57.270Z,99.90
2018-12-27T14:53:25.822Z,99.90
2018-12-27T14:55:54.964Z,99.90
2018-12-27T14:58:24.176Z,99.90
2018-12-27T15:00:52.721Z,99.90
2018-12-27T15:03:21.229Z,99.90
2018-12-27T15:05:49.784Z,99.90
2018-12-27T15:08:18.226Z,99.90
2018-12-27T15:10:46.715Z,99.90
2018-12-27T15:13:15.203Z,99.90
2018-12-27T15:15:43.668Z,99.90
2018-12-27T15:18:12.183Z,99.90
2018-12-27T15:20:40.672Z,99.90
2018-12-27T15:23:09.133Z,99.90
2018-12-27T15:25:37.589Z,99.90
2018-12-27T15:28:06.083Z,99.90
2018-12-27T15:30:34.591Z,99.90
2018-12-27T15:33:03.067Z,99.90
2018-12-27T15:35:31.597Z,99.90
2018-12-27T15:38:00.337Z,99.90
2018-12-27T15:40:28.798Z,99.90
2018-12-27T15:42:57.260Z,99.90
2018-12-27T15:45:25.763Z,99.90
2018-12-27T15:47:54.281Z,99.90
2018-12-27T15:50:22.744Z,99.90
2018-12-27T15:52:51.252Z,99.90
2018-12-27T15:55:19.752Z,99.90
2018-12-27T15:57:48.224Z,99.90
2018-12-27T16:00:16.769Z,99.90
2018-12-27T16:02:45.341Z,99.90
2018-12-27T16:05:13.792Z,99.90
2018-12-27T16:07:42.284Z,99.90
2018-12-27T16:10:10.735Z,99.90
2018-12-27T16:12:39.251Z,99.90
2018-12-27T16:15:07.792Z,99.90
2018-12-27T16:17:36.282Z,99.90
2018-12-27T16:20:05.592Z,99.90
2018-12-27T16:22:34.199Z,99.90
2018-12-27T16:25:02.744Z,99.90
2018-12-27T16:27:31.411Z,99.90
2018-12-27T16:30:00.382Z,99.90
2018-12-27T16:32:28.899Z,99.90
2018-12-27T16:34:57.376Z,99.90
2018-12-27T16:37:25.909Z,99.90
2018-12-27T16:39:54.366Z,99.90
2018-12-27T16:42:22.825Z,99.90
2018-12-27T16:44:51.377Z,99.90
2018-12-27T16:47:19.839Z,99.90
2018-12-27T16:49:48.391Z,99.90
2018-12-27T16:52:16.869Z,99.90
2018-12-27T16:54:45.349Z,99.90
2018-12-27T16:57:19.717Z,99.90
2018-12-27T16:59:44.355Z,99.90
2018-12-27T17:02:13.521Z,99.90
2018-12-27T17:04:42.142Z,99.90
2018-12-27T17:07:16.091Z,99.90
2018-12-27T17:09:41.481Z,99.90
2018-12-27T17:12:10.057Z,99.90
2018-12-27T17:14:38.589Z,99.90
2018-12-27T17:17:07.354Z,99.90
2018-12-27T17:19:37.544Z,99.90
2018-12-27T17:22:06.081Z,99.90
2018-12-27T17:24:34.659Z,99.90
2018-12-27T17:27:03.111Z,99.90
2018-12-27T17:29:31.626Z,99.90
2018-12-27T17:32:00.093Z,99.90
2018-12-27T17:34:28.602Z,99.90
2018-12-27T17:36:57.061Z,99.90
2018-12-27T17:39:25.559Z,99.90
2018-12-27T17:41:54.005Z,99.90
2018-12-27T17:44:22.534Z,99.90
2018-12-27T17:46:51.034Z,99.90
2018-12-27T17:49:19.544Z,99.90
2018-12-27T17:51:48.089Z,99.90
2018-12-27T17:54:16.598Z,99.90
2018-12-27T17:56:45.065Z,99.90
2018-12-27T17:59:13.806Z,99.90
2018-12-27T18:01:42.317Z,99.90
2018-12-27T18:04:10.776Z,99.90
2018-12-27T18:06:39.241Z,99.90
2018-12-27T18:09:08.059Z,99.90
2018-12-27T18:11:36.513Z,99.90
2018-12-27T18:14:04.976Z,99.90
2018-12-27T18:16:33.473Z,99.90
2018-12-27T18:19:01.979Z,99.90
2018-12-27T18:21:30.510Z,99.90
2018-12-27T18:23:59.026Z,99.90
2018-12-27T18:26:27.587Z,99.90
2018-12-27T18:28:56.049Z,99.90
2018-12-27T18:31:24.514Z,99.90
2018-12-27T18:33:53.045Z,99.90
2018-12-27T18:36:21.546Z,99.90
2018-12-27T18:38:50.804Z,99.90
2018-12-27T18:41:19.588Z,99.90
2018-12-27T18:43:48.124Z,99.90
2018-12-27T18:46:16.578Z,99.90
2018-12-27T18:48:45.161Z,99.90
2018-12-27T18:51:14.066Z,99.90
2018-12-27T18:53:42.542Z,99.90
2018-12-27T18:56:11.243Z,99.90
2018-12-27T18:58:39.792Z,99.90
2018-12-27T19:01:08.260Z,99.90
2018-12-27T19:03:36.763Z,99.90
2018-12-27T19:06:05.291Z,99.90
2018-12-27T19:08:33.893Z,99.90
2018-12-27T19:11:39.088Z,99.90
2018-12-27T19:14:07.555Z,99.90
2018-12-27T19:16:36.093Z,99.90
2018-12-27T19:19:04.606Z,99.90
2018-12-27T19:21:35.519Z,99.90
2018-12-27T19:24:04.109Z,99.90
2018-12-27T19:26:32.593Z,99.90
2018-12-27T19:29:01.097Z,99.90
2018-12-27T19:31:29.623Z,99.90
2018-12-27T19:33:58.120Z,99.90
2018-12-27T19:36:26.618Z,99.90
2018-12-27T19:38:55.116Z,99.90
2018-12-27T19:41:23.651Z,99.90
2018-12-27T19:43:52.155Z,99.90
2018-12-27T19:46:20.633Z,99.90
2018-12-27T19:48:49.106Z,99.90
2018-12-27T19:51:17.606Z,99.90
2018-12-27T19:53:46.073Z,99.90
2018-12-27T19:56:14.530Z,99.90
2018-12-27T19:58:43.123Z,99.90
2018-12-27T20:01:12.339Z,99.90
2018-12-27T20:03:40.873Z,99.90
2018-12-27T20:06:09.511Z,99.90
2018-12-27T20:08:37.989Z,99.90
2018-12-27T20:11:06.629Z,99.90
2018-12-27T20:13:35.110Z,99.90
2018-12-27T20:16:03.592Z,99.90
2018-12-27T20:18:32.169Z,99.90
2018-12-27T20:21:00.689Z,99.90
2018-12-27T20:23:29.162Z,99.90
2018-12-27T20:25:57.665Z,99.90
2018-12-27T20:28:26.123Z,99.90
2018-12-27T20:30:54.650Z,99.90
2018-12-27T20:33:23.224Z,99.90
2018-12-27T20:35:51.773Z,99.90
2018-12-27T20:38:20.242Z,99.90
2018-12-27T20:40:48.749Z,99.90
2018-12-27T20:43:17.393Z,99.90
2018-12-27T20:45:45.924Z,99.90
2018-12-27T20:48:14.665Z,99.90
2018-12-27T20:50:43.443Z,99.90
2018-12-27T20:53:11.939Z,99.90
2018-12-27T20:55:40.512Z,99.90
2018-12-27T20:58:09.162Z,99.90
2018-12-27T21:00:37.661Z,99.90
2018-12-27T21:03:06.195Z,99.90
2018-12-27T21:05:34.703Z,99.90
2018-12-27T21:08:03.253Z,99.90
2018-12-27T21:10:31.825Z,99.90
2018-12-27T21:13:00.294Z,99.90
2018-12-27T21:15:28.766Z,99.90
2018-12-27T21:17:57.474Z,99.90
2018-12-27T21:20:26.189Z,99.90
2018-12-27T21:22:54.666Z,99.90
2018-12-27T21:25:23.396Z,99.90
2018-12-27T21:27:51.936Z,99.90
2018-12-27T21:30:20.414Z,99.90
2018-12-27T21:32:49.058Z,99.90
2018-12-27T21:35:17.580Z,99.90
2018-12-27T21:37:46.041Z,99.90
2018-12-27T21:40:14.925Z,99.90
2018-12-27T21:42:43.431Z,99.90
2018-12-27T21:45:12.490Z,99.90
2018-12-27T21:47:41.027Z,99.90
2018-12-27T21:50:09.592Z,99.90
2018-12-27T21:52:38.050Z,99.90
2018-12-27T21:55:06.503Z,99.90
2018-12-27T21:57:35.003Z,99.90
2018-12-27T22:00:03.922Z,99.90
2018-12-27T22:02:32.811Z,99.90
2018-12-27T22:05:01.384Z,99.90
2018-12-27T22:07:29.915Z,99.90
2018-12-27T22:09:58.679Z,99.90
2018-12-27T22:12:27.242Z,99.90
2018-12-27T22:14:55.695Z,99.90
2018-12-27T22:17:24.203Z,99.90
2018-12-27T22:19:52.727Z,99.90
2018-12-27T22:22:21.232Z,99.90
2018-12-27T22:24:49.709Z,99.90
2018-12-27T22:27:18.409Z,99.90
2018-12-27T22:29:46.895Z,99.90
2018-12-27T22:32:15.439Z,99.90
2018-12-27T22:34:43.955Z,99.90
2018-12-27T22:37:13.321Z,99.90
2018-12-27T22:39:41.829Z,99.90
2018-12-27T22:42:10.368Z,99.90
2018-12-27T22:44:38.848Z,99.90
2018-12-27T22:47:07.492Z,99.90
2018-12-27T22:49:35.962Z,99.90
2018-12-27T22:52:04.425Z,99.90
2018-12-27T22:54:32.935Z,99.90
2018-12-27T22:57:01.500Z,99.90
2018-12-27T22:59:30.093Z,99.90
2018-12-27T23:01:58.635Z,99.90
2018-12-27T23:04:27.526Z,99.90
2018-12-27T23:06:56.055Z,99.90
2018-12-27T23:09:24.572Z,99.90
2018-12-27T23:11:53.173Z,99.90
2018-12-27T23:14:21.769Z,99.90
2018-12-27T23:16:50.331Z,99.90
2018-12-27T23:19:18.947Z,99.90
2018-12-27T23:21:47.829Z,99.90
2018-12-27T23:24:16.294Z,99.90
2018-12-27T23:26:44.755Z,99.90
2018-12-27T23:29:13.235Z,99.90
2018-12-27T23:31:41.730Z,99.90
2018-12-27T23:34:10.258Z,99.90
2018-12-27T23:36:38.850Z,99.90
2018-12-27T23:39:07.954Z,99.90
2018-12-27T23:41:36.495Z,99.90
2018-12-27T23:44:05.059Z,99.90
2018-12-27T23:46:33.536Z,99.90
2018-12-27T23:49:02.086Z,99.90
2018-12-27T23:51:30.661Z,99.90
2018-12-27T23:53:59.126Z,99.90
2018-12-27T23:56:27.615Z,99.90
2018-12-27T23:58:56.099Z,99.90
